Time;durP1;ratioP1;P1;durP2;ratioP2;P2;SDS_P1;SDS_P2;PMS_P1;PMS_P2;Temp;Humidity;BMP_temperature;BMP_pressure;BME280_temperature;BME280_humidity;BME280_pressure;Samples;Min_cycle;Max_cycle;Signal;HPM_P1;HPM_P2
2022/09/10 00:01:28;;;;;;;2.88;0.60;;;13.00;99.90;;;12.23;100.00;98080.91;5004239;28;20111;-69
2022/09/10 00:03:55;;;;;;;6.47;0.63;;;13.00;99.90;;;12.33;100.00;98069.19;5001422;28;20068;-70
2022/09/10 00:06:26;;;;;;;3.47;0.70;;;13.10;99.90;;;12.29;100.00;98066.75;5035995;28;20050;-69
2022/09/10 00:08:57;;;;;;;3.30;0.68;;;13.10;99.90;;;12.32;100.00;98061.44;5000023;28;20050;-69
2022/09/10 00:11:30;;;;;;;4.30;0.60;;;13.20;99.90;;;12.42;100.00;98069.72;5005244;28;20063;-69
2022/09/10 00:14:02;;;;;;;2.00;0.60;;;13.20;99.90;;;12.35;100.00;98064.75;5006337;28;20053;-70
2022/09/10 00:16:31;;;;;;;3.42;0.60;;;13.10;99.90;;;12.30;100.00;98060.66;5010283;28;20046;-70
2022/09/10 00:19:00;;;;;;;4.88;0.90;;;13.10;99.90;;;12.32;100.00;98064.06;5011141;28;20081;-70
2022/09/10 00:21:28;;;;;;;2.95;0.75;;;13.10;99.90;;;12.29;100.00;98065.03;5011668;28;20058;-69
2022/09/10 00:23:56;;;;;;;2.63;0.68;;;13.10;99.90;;;12.42;100.00;98060.13;5008438;28;20426;-70
2022/09/10 00:26:28;;;;;;;3.70;0.70;;;13.10;99.90;;;12.35;100.00;98061.31;5005892;28;20511;-69
2022/09/10 00:29:00;;;;;;;2.90;0.70;;;13.10;99.90;;;12.38;100.00;98053.38;5001936;28;20593;-69
2022/09/10 00:31:29;;;;;;;4.95;1.00;;;13.10;99.90;;;12.37;100.00;98048.25;5034613;28;20060;-69
2022/09/10 00:33:59;;;;;;;4.03;0.90;;;13.10;99.90;;;12.41;100.00;98055.03;5001146;28;20046;-69
2022/09/10 00:36:34;;;;;;;2.35;0.60;;;13.10;99.90;;;12.44;100.00;98052.28;5002433;28;20049;-69
2022/09/10 00:39:07;;;;;;;3.22;0.70;;;13.10;99.90;;;12.53;100.00;98064.91;5004272;28;20068;-69
2022/09/10 00:41:38;;;;;;;2.72;0.70;;;13.20;99.90;;;12.51;100.00;98069.31;5000358;28;20221;-69
2022/09/10 00:44:38;;;;;;;3.03;0.80;;;13.20;99.90;;;12.55;100.00;98069.13;5003268;28;20061;-69
2022/09/10 00:47:23;;;;;;;4.47;0.88;;;13.20;99.90;;;12.56;100.00;98065.59;5002214;28;20775;-70
2022/09/10 00:49:59;;;;;;;5.25;1.23;;;13.30;99.90;;;12.63;100.00;98058.38;5015730;28;20053;-70
2022/09/10 00:52:27;;;;;;;3.25;1.38;;;13.30;99.90;;;12.55;100.00;98056.09;5003761;28;20521;-69
2022/09/10 00:54:55;;;;;;;6.03;2.00;;;13.30;99.90;;;12.53;100.00;98054.47;5035799;28;20058;-69
2022/09/10 00:57:23;;;;;;;6.35;2.03;;;13.30;99.90;;;12.58;100.00;98065.53;5004343;28;20057;-69
2022/09/10 00:59:58;;;;;;;6.13;2.22;;;13.30;99.90;;;12.59;100.00;98061.16;5035749;28;20042;-69
2022/09/10 01:02:25;;;;;;;3.45;2.00;;;13.40;99.90;;;12.54;100.00;98064.84;5038025;28;20057;-69
2022/09/10 01:04:55;;;;;;;5.13;2.53;;;13.40;99.90;;;12.58;100.00;98051.69;5035384;28;20054;-69
2022/09/10 01:07:25;;;;;;;6.93;2.22;;;13.40;99.90;;;12.71;100.00;98061.50;5036966;28;20431;-69
2022/09/10 01:09:52;;;;;;;5.18;2.60;;;13.40;99.90;;;12.67;100.00;98052.13;5004790;28;20041;-69
2022/09/10 01:13:17;;;;;;;6.22;3.15;;;13.40;99.90;;;12.66;100.00;98050.44;5036832;28;20064;-70
2022/09/10 01:16:13;;;;;;;10.07;3.60;;;13.50;99.90;;;12.71;100.00;98051.09;5004980;28;20109;-70
2022/09/10 01:19:33;;;;;;;6.20;4.20;;;13.50;99.90;;;12.69;100.00;98060.72;5002672;28;20228;-69
2022/09/10 01:22:30;;;;;;;8.75;4.50;;;13.50;99.90;;;12.76;100.00;98056.94;5003525;28;20073;-69
2022/09/10 01:25:36;;;;;;;8.02;3.85;;;13.60;99.90;;;12.82;100.00;98055.84;5005107;28;20560;-69
2022/09/10 01:28:16;;;;;;;6.70;4.88;;;13.60;99.90;;;12.76;100.00;98058.69;5004458;28;20471;-69
2022/09/10 01:30:50;;;;;;;7.90;4.97;;;13.60;99.90;;;12.79;100.00;98061.16;5036374;28;20064;-69
2022/09/10 01:33:40;;;;;;;9.35;5.90;;;13.60;99.90;;;12.75;100.00;98051.81;5002082;28;20042;-69
2022/09/10 01:36:15;;;;;;;7.60;4.20;;;13.60;99.90;;;12.82;100.00;98057.56;4997934;28;20495;-70
2022/09/10 01:38:42;;;;;;;7.53;5.32;;;13.60;99.90;;;12.85;100.00;98057.44;5002067;28;20143;-70
2022/09/10 01:41:09;;;;;;;8.48;5.13;;;13.60;99.90;;;12.80;100.00;98055.06;5004124;28;20041;-69
2022/09/10 01:43:36;;;;;;;9.70;5.43;;;13.70;99.90;;;12.81;100.00;98055.88;5033985;28;20150;-70
2022/09/10 01:46:20;;;;;;;11.15;5.55;;;13.70;99.90;;;12.80;100.00;98057.66;5005899;28;20053;-69
2022/09/10 01:49:12;;;;;;;9.48;5.50;;;13.70;99.90;;;12.96;100.00;98055.22;4996859;28;20148;-70
2022/09/10 01:51:51;;;;;;;7.22;5.97;;;13.70;99.90;;;12.78;100.00;98056.88;5002982;28;20667;-69
2022/09/10 01:55:10;;;;;;;8.70;5.20;;;13.80;99.90;;;12.81;100.00;98042.88;5003920;28;20553;-69
2022/09/10 01:57:51;;;;;;;11.57;6.38;;;13.80;99.90;;;12.76;100.00;98045.66;5004793;28;20054;-69
2022/09/10 02:00:22;;;;;;;13.45;5.57;;;13.70;99.90;;;12.87;100.00;98051.25;5001962;28;20065;-69
2022/09/10 02:03:04;;;;;;;7.97;5.40;;;13.70;99.90;;;12.88;100.00;98052.94;5003864;28;20088;-70
2022/09/10 02:05:35;;;;;;;7.50;4.70;;;13.70;99.90;;;12.96;100.00;98048.25;5003341;28;20050;-70
2022/09/10 02:08:19;;;;;;;9.73;5.43;;;13.70;99.90;;;12.84;100.00;98046.19;5000896;28;20077;-69
2022/09/10 02:10:59;;;;;;;10.52;4.03;;;13.70;99.90;;;12.85;100.00;98049.63;5036132;28;20108;-69
2022/09/10 02:13:29;;;;;;;10.15;4.65;;;13.70;99.90;;;12.82;100.00;98052.34;5005201;28;20046;-68
2022/09/10 02:15:58;;;;;;;11.85;4.30;;;13.80;99.90;;;12.81;100.00;98054.13;5002501;28;22274;-68
2022/09/10 02:18:25;;;;;;;6.88;4.50;;;13.70;99.90;;;12.88;100.00;98054.69;4997507;28;20136;-68
2022/09/10 02:20:55;;;;;;;8.27;3.95;;;13.70;99.90;;;12.86;100.00;98051.31;4997400;28;20050;-68
2022/09/10 02:23:33;;;;;;;6.22;3.20;;;13.80;99.90;;;12.90;100.00;98060.69;5002973;28;20060;-68
2022/09/10 02:26:00;;;;;;;8.80;3.10;;;13.70;99.90;;;12.94;100.00;98049.22;5006151;28;20969;-68
2022/09/10 02:28:29;;;;;;;5.28;2.38;;;13.70;99.90;;;12.93;100.00;98053.59;5004999;28;20045;-68
2022/09/10 02:30:55;;;;;;;8.25;3.28;;;13.70;99.90;;;12.86;100.00;98049.53;5000913;28;20407;-68
2022/09/10 02:33:22;;;;;;;7.65;3.38;;;13.70;99.90;;;12.87;100.00;98047.81;5034248;28;20050;-68
2022/09/10 02:35:50;;;;;;;5.45;3.17;;;13.70;99.90;;;12.93;100.00;98044.91;5003674;28;20624;-68
2022/09/10 02:38:17;;;;;;;14.48;3.45;;;13.70;99.90;;;12.88;100.00;98049.50;5003870;28;20042;-68
2022/09/10 02:40:48;;;;;;;10.57;3.20;;;13.70;99.90;;;12.96;100.00;98040.41;5005670;28;20053;-68
2022/09/10 02:43:16;;;;;;;8.80;2.95;;;13.70;99.90;;;12.89;100.00;98038.16;5035832;28;20069;-68
2022/09/10 02:45:43;;;;;;;11.02;3.13;;;13.70;99.90;;;12.80;100.00;98035.97;5003766;28;20054;-68
2022/09/10 02:48:10;;;;;;;5.38;2.50;;;13.80;99.90;;;12.92;100.00;98031.03;5001053;28;20088;-68
2022/09/10 02:50:37;;;;;;;11.32;2.85;;;13.80;99.90;;;12.91;100.00;98037.19;5005193;28;20038;-68
2022/09/10 02:53:05;;;;;;;5.78;2.33;;;13.80;99.90;;;12.85;100.00;98042.66;5003281;28;20046;-68
2022/09/10 02:55:32;;;;;;;5.85;2.97;;;13.80;99.90;;;12.79;100.00;98042.91;4998843;28;20462;-68
2022/09/10 02:57:59;;;;;;;9.93;3.30;;;13.80;99.90;;;12.87;100.00;98038.22;5005273;28;20057;-68
2022/09/10 03:00:26;;;;;;;10.02;3.90;;;13.80;99.90;;;12.77;100.00;98032.59;5007534;28;20564;-68
2022/09/10 03:02:55;;;;;;;7.25;3.30;;;13.80;99.90;;;12.85;100.00;98040.06;5006616;28;20054;-68
2022/09/10 03:05:28;;;;;;;9.05;3.50;;;13.80;99.90;;;12.81;100.00;98038.50;5035306;28;20048;-69
2022/09/10 03:07:56;;;;;;;4.72;2.97;;;13.80;99.90;;;12.87;100.00;98042.59;5006277;28;20426;-69
2022/09/10 03:10:23;;;;;;;6.13;3.30;;;13.80;99.90;;;12.97;100.00;98042.09;5003300;28;20076;-69
2022/09/10 03:12:50;;;;;;;7.15;3.22;;;13.80;99.90;;;12.89;100.00;98040.78;5009616;28;20038;-68
2022/09/10 03:15:19;;;;;;;11.65;4.38;;;13.80;99.90;;;12.83;100.00;98043.66;5005832;28;20046;-68
2022/09/10 03:17:46;;;;;;;7.55;3.60;;;13.80;99.90;;;12.85;100.00;98039.22;5007381;28;20065;-68
2022/09/10 03:20:13;;;;;;;5.50;3.00;;;13.80;99.90;;;12.90;100.00;98040.69;5007431;28;20172;-68
2022/09/10 03:22:40;;;;;;;7.72;3.17;;;13.80;99.90;;;12.87;100.00;98045.22;5005694;28;20054;-69
2022/09/10 03:25:07;;;;;;;8.10;3.78;;;13.80;99.90;;;12.83;100.00;98030.63;5007236;28;20061;-68
2022/09/10 03:27:35;;;;;;;5.70;3.50;;;13.80;99.90;;;12.91;100.00;98037.19;5007188;28;20057;-68
2022/09/10 03:30:02;;;;;;;11.70;3.33;;;13.70;99.90;;;12.94;100.00;98036.19;5005337;28;20053;-68
2022/09/10 03:32:30;;;;;;;5.50;3.90;;;13.70;99.90;;;12.80;100.00;98046.41;5006570;28;20050;-68
2022/09/10 03:34:58;;;;;;;8.10;3.72;;;13.80;99.90;;;12.84;100.00;98034.91;5004040;28;20491;-68
2022/09/10 03:37:27;;;;;;;6.78;3.45;;;13.80;99.90;;;12.83;100.00;98046.25;5007368;28;20057;-69
2022/09/10 03:39:54;;;;;;;6.88;3.00;;;13.70;99.90;;;12.89;100.00;98032.97;5039130;28;20108;-69
2022/09/10 03:42:21;;;;;;;6.43;3.20;;;13.70;99.90;;;12.83;100.00;98035.81;5038691;28;20223;-69
2022/09/10 03:44:48;;;;;;;9.18;3.42;;;13.60;99.90;;;12.70;100.00;98035.50;5006099;28;20069;-69
2022/09/10 03:47:15;;;;;;;11.20;3.67;;;13.60;99.90;;;12.71;100.00;98043.28;5007153;28;20061;-70
2022/09/10 03:49:42;;;;;;;7.40;2.92;;;13.50;99.90;;;12.68;100.00;98045.16;5006613;28;20049;-70
2022/09/10 03:52:11;;;;;;;8.15;4.13;;;13.50;99.90;;;12.65;100.00;98046.13;5006615;28;20057;-71
2022/09/10 03:54:38;;;;;;;7.10;3.28;;;13.50;99.90;;;12.74;100.00;98044.88;5001252;28;20057;-70
2022/09/10 03:57:05;;;;;;;5.03;2.60;;;13.50;99.90;;;12.63;100.00;98040.13;5004939;28;20041;-70
2022/09/10 03:59:33;;;;;;;5.60;3.00;;;13.40;99.90;;;12.61;100.00;98044.56;5006598;28;20454;-70
2022/09/10 04:02:00;;;;;;;5.97;2.60;;;13.40;99.90;;;12.59;100.00;98049.03;5005659;28;20068;-70
2022/09/10 04:04:28;;;;;;;7.75;3.13;;;13.40;99.90;;;12.53;100.00;98050.13;5001111;28;20145;-70
2022/09/10 04:06:55;;;;;;;4.32;2.05;;;13.40;99.90;;;12.55;100.00;98044.84;5005208;28;20541;-70
2022/09/10 04:09:21;;;;;;;5.65;1.95;;;13.30;99.90;;;12.60;100.00;98047.25;5004723;28;20065;-70
2022/09/10 04:11:48;;;;;;;5.90;2.60;;;13.30;99.90;;;12.59;100.00;98032.53;5005674;28;20046;-71
2022/09/10 04:14:15;;;;;;;4.25;2.20;;;13.30;99.90;;;12.55;100.00;98055.28;5004983;28;20061;-70
2022/09/10 04:16:42;;;;;;;7.95;2.80;;;13.30;99.90;;;12.53;100.00;98049.28;5006524;28;20057;-71
2022/09/10 04:19:09;;;;;;;7.18;2.85;;;13.20;99.90;;;12.45;100.00;98044.41;5001342;28;20068;-71
2022/09/10 04:21:36;;;;;;;7.45;2.63;;;13.20;99.90;;;12.44;100.00;98050.50;5004642;28;20407;-71
2022/09/10 04:24:04;;;;;;;6.95;2.92;;;13.20;99.90;;;12.47;100.00;98045.16;5004628;28;20145;-71
2022/09/10 04:26:30;;;;;;;7.13;3.95;;;13.20;99.90;;;12.47;100.00;98039.94;5004326;28;20064;-71
2022/09/10 04:28:58;;;;;;;7.25;4.30;;;13.20;99.90;;;12.44;100.00;98034.06;5002842;28;20046;-71
2022/09/10 04:31:25;;;;;;;6.13;3.47;;;13.20;99.90;;;12.48;100.00;98046.03;5003848;28;20061;-71
2022/09/10 04:33:52;;;;;;;7.65;4.05;;;13.20;99.90;;;12.47;100.00;98044.31;5004651;28;20049;-71
2022/09/10 04:36:19;;;;;;;6.28;4.32;;;13.20;99.90;;;12.50;100.00;98052.03;5004090;28;20076;-71
2022/09/10 04:38:46;;;;;;;11.73;4.53;;;13.20;99.90;;;12.49;100.00;98040.75;5004216;28;20050;-70
2022/09/10 04:41:14;;;;;;;6.63;4.25;;;13.30;99.90;;;12.55;100.00;98050.91;5034474;28;20049;-70
2022/09/10 04:43:41;;;;;;;7.50;4.82;;;13.30;99.90;;;12.53;100.00;98049.28;5005419;28;20535;-70
2022/09/10 04:46:08;;;;;;;14.57;4.93;;;13.30;99.90;;;12.54;100.00;98059.63;5001342;28;20076;-70
2022/09/10 04:48:35;;;;;;;13.35;5.82;;;13.30;99.90;;;12.55;100.00;98055.28;5015165;28;20126;-71
2022/09/10 04:51:02;;;;;;;12.05;4.95;;;13.30;99.90;;;12.60;100.00;98049.88;5005734;28;20045;-70
2022/09/10 04:53:43;;;;;;;9.63;4.97;;;13.30;99.90;;;12.63;100.00;98055.75;5002919;28;20056;-70
2022/09/10 04:56:10;;;;;;;7.95;3.70;;;13.30;99.90;;;12.61;100.00;98061.97;5004700;28;20046;-70
2022/09/10 04:58:37;;;;;;;12.15;4.95;;;13.40;99.90;;;12.62;100.00;98066.28;5005007;28;20057;-71
2022/09/10 05:01:05;;;;;;;8.10;5.30;;;13.40;99.90;;;12.58;100.00;98072.50;5002494;28;20092;-72
2022/09/10 05:03:33;;;;;;;9.50;4.32;;;13.40;99.90;;;12.64;100.00;98070.50;5004153;28;20049;-71
2022/09/10 05:06:00;;;;;;;8.65;4.55;;;13.30;99.90;;;12.62;100.00;98077.53;5005262;28;20038;-71
2022/09/10 05:08:27;;;;;;;10.65;4.75;;;13.40;99.90;;;12.64;100.00;98064.44;5003151;28;20046;-70
2022/09/10 05:10:54;;;;;;;6.95;3.97;;;13.30;99.90;;;12.62;100.00;98076.69;5005055;28;20046;-70
2022/09/10 05:13:21;;;;;;;6.70;3.30;;;13.40;99.90;;;12.67;100.00;98085.97;5004895;28;20511;-70
2022/09/10 05:15:48;;;;;;;7.65;3.28;;;13.40;99.90;;;12.71;100.00;98086.72;5003269;28;20050;-69
2022/09/10 05:18:15;;;;;;;7.03;3.13;;;13.40;99.90;;;12.71;100.00;98086.72;5002921;28;20068;-70
2022/09/10 05:20:43;;;;;;;10.05;4.43;;;13.40;99.90;;;12.73;100.00;98077.91;5005986;28;20046;-70
2022/09/10 05:23:11;;;;;;;15.75;4.68;;;13.40;99.90;;;12.69;100.00;98084.16;5004441;28;20077;-69
2022/09/10 05:25:38;;;;;;;15.65;3.90;;;13.40;99.90;;;12.74;100.00;98090.00;5005371;28;20123;-70
2022/09/10 05:28:05;;;;;;;9.20;2.88;;;13.40;99.90;;;12.79;100.00;98086.38;4999704;28;20060;-70
2022/09/10 05:30:32;;;;;;;14.10;3.40;;;13.40;99.90;;;12.72;100.00;98091.00;5005294;28;20555;-69
2022/09/10 05:33:00;;;;;;;7.75;2.85;;;13.40;99.90;;;12.73;100.00;98090.09;5000865;28;20065;-70
2022/09/10 05:35:28;;;;;;;8.02;3.38;;;13.50;99.90;;;12.75;100.00;98098.69;5004120;28;20050;-70
2022/09/10 05:37:56;;;;;;;8.93;3.38;;;13.50;99.90;;;12.82;100.00;98097.50;5032567;28;20050;-70
2022/09/10 05:40:24;;;;;;;12.02;3.20;;;13.50;99.90;;;12.79;100.00;98109.81;5018437;28;20045;-70
2022/09/10 05:42:53;;;;;;;14.80;4.03;;;13.50;99.90;;;12.80;100.00;98112.34;5034665;28;20050;-70
2022/09/10 05:45:22;;;;;;;9.88;2.97;;;13.50;99.90;;;12.85;100.00;98107.78;5000992;28;20054;-70
2022/09/10 05:47:49;;;;;;;10.90;3.50;;;13.50;99.90;;;12.93;100.00;98105.72;5034241;28;20057;-70
2022/09/10 05:50:16;;;;;;;11.00;3.25;;;13.60;99.90;;;12.90;100.00;98112.81;4995892;28;20448;-70
2022/09/10 05:52:44;;;;;;;13.02;3.78;;;13.60;99.90;;;12.83;100.00;98117.44;4997546;28;20057;-69
2022/09/10 05:55:11;;;;;;;12.00;3.05;;;13.70;99.90;;;12.84;100.00;98119.13;5034361;28;20061;-69
2022/09/10 05:57:39;;;;;;;8.32;3.00;;;13.70;99.90;;;12.91;100.00;98115.34;5001257;28;20049;-70
2022/09/10 06:00:08;;;;;;;7.60;3.13;;;13.70;99.90;;;12.94;100.00;98123.03;5034031;28;20068;-70
2022/09/10 06:02:35;;;;;;;12.23;3.78;;;13.70;99.90;;;12.98;100.00;98118.53;5004201;28;20514;-70
2022/09/10 06:05:03;;;;;;;12.90;3.13;;;13.70;99.90;;;12.91;100.00;98122.31;5002276;28;20652;-70
2022/09/10 06:07:30;;;;;;;11.35;3.60;;;13.70;99.90;;;12.97;100.00;98115.06;5001905;28;20046;-70
2022/09/10 06:09:57;;;;;;;11.18;4.07;;;13.70;99.90;;;13.02;100.00;98117.47;5004999;28;20681;-69
2022/09/10 06:12:24;;;;;;;17.05;3.92;;;13.80;99.90;;;13.01;100.00;98126.22;5001489;28;20050;-69
2022/09/10 06:14:51;;;;;;;10.52;3.97;;;13.80;99.90;;;13.04;100.00;98120.84;5001957;28;20516;-69
2022/09/10 06:17:19;;;;;;;10.55;3.63;;;13.80;99.90;;;13.02;100.00;98133.09;5002705;28;20470;-70
2022/09/10 06:19:46;;;;;;;14.00;3.60;;;13.80;99.90;;;13.04;100.00;98120.84;5000085;28;20046;-70
2022/09/10 06:22:13;;;;;;;16.35;3.65;;;13.90;99.90;;;13.01;100.00;98141.84;5002401;28;20049;-69
2022/09/10 06:24:40;;;;;;;12.20;3.63;;;13.90;99.90;;;13.13;100.00;98128.25;5003117;28;20061;-70
2022/09/10 06:27:08;;;;;;;15.10;2.90;;;14.00;99.90;;;13.07;100.00;98143.31;4999765;28;20054;-70
2022/09/10 06:29:35;;;;;;;9.65;3.08;;;14.00;99.90;;;13.09;100.00;98144.09;4995932;28;20057;-69
2022/09/10 06:32:03;;;;;;;8.48;2.80;;;14.00;99.90;;;13.07;100.00;98153.75;5004721;28;20598;-69
2022/09/10 06:34:30;;;;;;;7.40;2.67;;;14.00;99.90;;;13.14;100.00;98153.44;5005292;28;20041;-70
2022/09/10 06:36:57;;;;;;;10.88;2.85;;;14.00;99.90;;;13.12;100.00;98164.84;5007806;28;20140;-70
2022/09/10 06:39:24;;;;;;;6.53;2.45;;;14.00;99.90;;;13.23;100.00;98160.00;5001805;28;20112;-70
2022/09/10 06:41:52;;;;;;;11.15;3.53;;;14.00;99.90;;;13.25;100.00;98160.78;5006509;28;20141;-69
2022/09/10 06:44:20;;;;;;;9.73;4.20;;;14.00;99.90;;;13.22;100.00;98155.69;5006081;28;20061;-69
2022/09/10 06:46:47;;;;;;;10.60;3.50;;;14.00;99.90;;;13.08;100.00;98160.66;5007986;28;20057;-69
2022/09/10 06:49:35;;;;;;;11.27;2.70;;;14.10;99.90;;;13.18;100.00;98177.59;5004634;28;20045;-69
2022/09/10 06:52:02;;;;;;;11.68;4.07;;;14.10;99.90;;;13.17;100.00;98160.28;5006476;28;20042;-69
2022/09/10 06:54:29;;;;;;;9.65;3.60;;;14.10;99.90;;;13.19;100.00;98156.69;5003787;28;20046;-69
2022/09/10 06:56:56;;;;;;;17.02;3.55;;;14.20;99.90;;;13.27;100.00;98161.53;5002450;28;20088;-71
2022/09/10 06:59:23;;;;;;;9.90;3.63;;;14.20;99.90;;;13.14;100.00;98163.84;5004251;28;20046;-69
2022/09/10 07:01:50;;;;;;;10.43;3.95;;;14.20;99.90;;;13.18;100.00;98146.31;5004792;28;20049;-68
2022/09/10 07:04:17;;;;;;;9.25;3.65;;;14.20;99.90;;;13.22;100.00;98163.50;5035166;28;20533;-68
2022/09/10 07:06:46;;;;;;;8.10;2.85;;;14.20;99.90;;;13.28;100.00;98147.66;5006473;28;20093;-71
2022/09/10 07:09:14;;;;;;;8.25;2.42;;;14.20;99.90;;;13.25;100.00;98154.72;5005935;28;20121;-69
2022/09/10 07:11:40;;;;;;;9.18;3.28;;;14.20;99.90;;;13.19;100.00;98148.03;5000797;28;20567;-71
2022/09/10 07:14:12;;;;;;;8.90;2.90;;;14.20;99.90;;;13.25;100.00;98139.06;5003573;28;20375;-71
2022/09/10 07:16:44;;;;;;;12.93;2.90;;;14.20;99.90;;;13.32;100.00;98130.94;5017096;28;20108;-71
2022/09/10 07:19:16;;;;;;;13.07;2.70;;;14.20;99.90;;;13.36;100.00;98132.53;5034894;28;20049;-71
2022/09/10 07:21:43;;;;;;;13.00;2.25;;;14.40;99.90;;;13.50;100.00;98125.81;4998896;28;20058;-71
2022/09/10 07:24:11;;;;;;;6.03;2.05;;;14.50;99.90;;;13.42;100.00;98128.78;5003942;28;20526;-71
2022/09/10 07:26:38;;;;;;;10.75;2.20;;;14.60;99.90;;;13.49;100.00;98130.19;5004405;28;20456;-71
2022/09/10 07:29:06;;;;;;;9.52;1.98;;;14.70;99.90;;;13.57;100.00;98127.22;5002790;28;20057;-70
2022/09/10 07:31:36;;;;;;;7.45;1.73;;;14.70;99.90;;;13.79;100.00;98119.25;5004513;28;20176;-69
2022/09/10 07:34:03;;;;;;;8.02;1.88;;;14.80;99.90;;;13.76;100.00;98122.00;5003483;28;20061;-71
2022/09/10 07:36:30;;;;;;;7.53;2.03;;;15.00;99.90;;;13.81;100.00;98113.03;5002175;28;20053;-70
2022/09/10 07:39:00;;;;;;;9.13;1.75;;;15.10;99.90;;;14.20;100.00;98112.03;5003642;28;20042;-69
2022/09/10 07:41:28;;;;;;;8.45;1.92;;;15.20;99.90;;;14.12;100.00;98108.97;4999799;28;20168;-69
2022/09/10 07:43:56;;;;;;;6.28;1.67;;;15.30;99.90;;;13.88;100.00;98097.09;5002563;28;21027;-67
2022/09/10 07:46:24;;;;;;;10.50;1.67;;;15.40;99.90;;;14.15;100.00;98094.91;4999689;28;20045;-67
2022/09/10 07:48:57;;;;;;;9.43;1.80;;;15.30;99.90;;;13.97;100.00;98092.28;5003423;28;20081;-68
2022/09/10 07:51:28;;;;;;;6.32;1.38;;;15.30;99.90;;;14.14;100.00;98081.03;5003785;28;20533;-67
2022/09/10 07:53:57;;;;;;;8.35;1.75;;;15.40;99.90;;;14.29;100.00;98074.19;5035775;28;20046;-67
2022/09/10 07:56:25;;;;;;;13.48;1.65;;;15.50;99.90;;;14.01;100.00;98075.56;5003834;28;20049;-67
2022/09/10 07:58:53;;;;;;;5.88;1.38;;;15.50;99.90;;;14.27;100.00;98065.59;5003109;28;20061;-67
2022/09/10 08:01:20;;;;;;;4.82;1.10;;;15.50;99.90;;;14.30;100.00;98044.56;5031908;28;20724;-68
2022/09/10 08:03:47;;;;;;;7.45;1.55;;;15.50;99.90;;;14.34;100.00;98042.63;5002508;28;20104;-66
2022/09/10 08:06:15;;;;;;;9.20;1.35;;;15.50;99.90;;;14.32;100.00;98020.97;4998441;28;20077;-68
2022/09/10 08:08:43;;;;;;;9.93;1.90;;;15.50;99.90;;;14.20;100.00;98006.78;5001616;28;20061;-68
2022/09/10 08:11:13;;;;;;;14.27;1.67;;;15.60;99.90;;;14.13;100.00;97995.78;4999744;28;20050;-68
2022/09/10 08:13:48;;;;;;;8.55;1.48;;;15.60;99.90;;;14.04;100.00;97983.19;4997560;28;20045;-69
2022/09/10 08:16:24;;;;;;;6.93;1.38;;;15.50;99.90;;;14.04;100.00;97970.16;5000930;28;20050;-68
2022/09/10 08:18:55;;;;;;;7.03;1.38;;;15.50;99.90;;;14.19;100.00;97978.97;5002999;28;20057;-68
2022/09/10 08:21:25;;;;;;;5.35;1.23;;;15.50;99.90;;;14.43;100.00;97954.19;5024443;28;20073;-68
2022/09/10 08:23:53;;;;;;;15.35;1.52;;;15.70;99.90;;;14.72;100.00;97944.03;4998100;28;20060;-67
2022/09/10 08:26:22;;;;;;;9.75;1.58;;;15.90;99.90;;;14.87;100.00;97941.50;4999977;28;20053;-68
2022/09/10 08:28:54;;;;;;;6.28;1.40;;;16.20;99.90;;;15.44;100.00;97911.28;4995448;28;20129;-67
2022/09/10 08:31:25;;;;;;;8.02;1.45;;;16.40;99.90;;;14.95;100.00;97876.59;5001483;28;20058;-68
2022/09/10 08:33:55;;;;;;;6.63;1.27;;;16.30;99.90;;;15.26;100.00;97868.72;5028353;28;20125;-68
2022/09/10 08:36:23;;;;;;;6.63;1.20;;;16.50;99.90;;;15.06;100.00;97855.94;5032053;28;20054;-68
2022/09/10 08:38:50;;;;;;;7.57;1.15;;;16.70;99.90;;;15.36;100.00;97827.19;5001889;28;20057;-68
2022/09/10 08:41:34;;;;;;;5.82;1.02;;;16.70;99.90;;;14.99;100.00;97831.06;4999379;28;20069;-67
2022/09/10 08:44:49;;;;;;;7.43;1.17;;;16.60;99.90;;;15.27;100.00;97812.03;4999939;28;20050;-70
2022/09/10 08:47:34;;;;;;;4.88;1.00;;;16.50;99.90;;;15.13;100.00;97809.38;5016283;28;20045;-67
2022/09/10 08:50:41;;;;;;;3.97;0.82;;;16.70;99.90;;;15.34;100.00;97804.66;5018359;28;20054;-68
2022/09/10 08:53:18;;;;;;;7.05;1.20;;;16.90;99.90;;;14.55;100.00;97800.41;5000575;28;20596;-67
2022/09/10 08:55:46;;;;;;;3.15;0.98;;;16.70;99.90;;;14.85;100.00;97805.72;4998534;28;20075;-67
2022/09/10 08:58:29;;;;;;;6.78;1.10;;;16.40;99.90;;;14.65;100.00;97835.56;5035986;28;20115;-68
2022/09/10 09:01:01;;;;;;;7.13;1.00;;;16.30;99.90;;;14.70;100.00;97832.69;5030549;28;20056;-67
2022/09/10 09:03:38;;;;;;;5.60;1.00;;;16.30;99.90;;;14.81;100.00;97841.63;5027914;28;20053;-68
2022/09/10 09:06:21;;;;;;;10.88;1.30;;;16.30;99.90;;;14.68;100.00;97858.88;5000027;28;20131;-68
2022/09/10 09:08:48;;;;;;;6.07;1.10;;;16.30;99.90;;;15.25;100.00;97864.41;4996116;28;20049;-67
2022/09/10 09:11:44;;;;;;;8.60;1.20;;;16.50;99.90;;;15.22;100.00;97842.84;4996276;28;20120;-68
2022/09/10 09:14:44;;;;;;;9.18;1.38;;;16.70;99.90;;;15.11;100.00;97843.44;5031861;28;20045;-67
2022/09/10 09:17:36;;;;;;;10.25;1.20;;;17.10;99.90;;;14.98;100.00;97840.66;5029593;28;20057;-67
2022/09/10 09:20:45;;;;;;;11.88;1.45;;;16.90;99.90;;;14.83;100.00;97833.69;5004015;28;20052;-67
2022/09/10 09:23:22;;;;;;;10.88;1.42;;;16.60;99.90;;;14.42;100.00;97839.38;4992349;28;20058;-68
2022/09/10 09:25:56;;;;;;;8.10;1.40;;;16.30;99.90;;;14.59;100.00;97864.63;5000001;28;20464;-68
2022/09/10 09:28:40;;;;;;;8.27;1.67;;;15.90;99.90;;;14.43;100.00;97883.69;4999406;28;20049;-68
2022/09/10 09:31:34;;;;;;;8.98;1.55;;;15.60;99.90;;;14.46;100.00;97887.94;4996332;28;20054;-68
2022/09/10 09:34:13;;;;;;;7.07;1.10;;;15.50;99.90;;;14.51;100.00;97905.97;5000085;28;20050;-67
2022/09/10 09:36:46;;;;;;;6.63;1.23;;;15.50;99.90;;;14.44;100.00;97915.88;4998095;28;20057;-67
2022/09/10 09:40:05;;;;;;;8.60;1.23;;;15.40;99.90;;;14.34;100.00;97930.34;5003386;28;20077;-67
2022/09/10 09:42:57;;;;;;;9.35;1.70;;;15.30;99.90;;;14.25;100.00;97923.81;4998066;28;20531;-68
2022/09/10 09:45:33;;;;;;;8.85;1.10;;;15.30;99.90;;;14.25;100.00;97954.31;5008641;28;20084;-69
2022/09/10 09:48:01;;;;;;;6.28;1.30;;;15.20;99.90;;;14.23;100.00;97965.69;5000227;28;20131;-69
2022/09/10 09:50:30;;;;;;;10.90;1.70;;;15.10;99.90;;;14.26;100.00;97972.53;4995968;28;20046;-69
2022/09/10 09:52:57;;;;;;;8.82;1.50;;;15.00;99.90;;;14.28;100.00;97993.31;5030008;28;20053;-68
2022/09/10 09:55:35;;;;;;;9.20;1.67;;;15.00;99.90;;;14.12;100.00;97999.34;4997690;28;20172;-68
2022/09/10 09:58:23;;;;;;;9.48;1.70;;;15.00;99.90;;;14.29;100.00;98001.06;5030211;28;20049;-68
2022/09/10 10:01:07;;;;;;;6.65;1.48;;;15.00;99.90;;;14.12;100.00;98009.78;5001504;28;20050;-68
2022/09/10 10:03:47;;;;;;;10.45;1.30;;;15.00;99.90;;;14.06;100.00;98010.06;5027080;28;20656;-69
2022/09/10 10:06:15;;;;;;;6.78;1.00;;;15.00;99.90;;;14.41;100.00;98044.88;4996915;28;20046;-68
2022/09/10 10:08:54;;;;;;;6.57;1.58;;;15.10;99.90;;;14.31;100.00;98051.47;4994323;28;20076;-67
2022/09/10 10:11:22;;;;;;;7.55;1.48;;;15.30;99.90;;;14.34;100.00;98040.84;4995723;28;20145;-67
2022/09/10 10:13:52;;;;;;;12.52;2.00;;;15.20;99.90;;;14.16;100.00;98053.09;5028100;28;20134;-68
2022/09/10 10:16:34;;;;;;;7.88;1.25;;;15.20;99.90;;;14.27;100.00;98056.91;4996191;28;20078;-68
2022/09/10 10:19:02;;;;;;;11.48;2.03;;;15.10;99.90;;;14.46;100.00;98067.28;4996853;28;20101;-68
2022/09/10 10:21:32;;;;;;;8.60;1.45;;;15.20;99.90;;;14.25;100.00;98082.25;5027361;28;20068;-68
2022/09/10 10:23:59;;;;;;;7.85;1.40;;;15.20;99.90;;;14.26;100.00;98068.28;5009484;28;20054;-68
2022/09/10 10:26:34;;;;;;;7.20;1.23;;;15.30;99.90;;;14.32;100.00;98061.00;5027011;28;20061;-68
2022/09/10 10:29:19;;;;;;;8.68;1.50;;;15.20;99.90;;;14.27;100.00;98064.75;4998685;28;20046;-68
2022/09/10 10:31:49;;;;;;;8.18;1.48;;;15.10;99.90;;;14.01;100.00;98059.88;5027383;28;20060;-67